Time;durP1;ratioP1;P1;durP2;ratioP2;P2;SDS_P1;SDS_P2;PMS_P1;PMS_P2;Temp;Humidity;BMP_temperature;BMP_pressure;BME280_temperature;BME280_humidity;BME280_pressure;Samples;Min_cycle;Max_cycle;Signal;HPM_P1;HPM_P2
2024/04/16 00:03:44;;;;;;;12.53;3.20;;;;;;;9.45;100.00;98640.91;5045167;57;1136397;-80
2024/04/16 00:08:52;;;;;;;7.27;4.43;;;;;;;9.40;100.00;98658.52;5025303;57;1138764;-80
2024/04/16 00:13:57;;;;;;;6.10;3.93;;;;;;;9.38;100.00;98671.05;5037212;56;1136465;-80
2024/04/16 00:19:07;;;;;;;9.70;5.17;;;;;;;9.37;100.00;98678.62;5108556;56;1136678;-81
2024/04/16 00:24:13;;;;;;;6.30;4.00;;;;;;;9.42;100.00;98711.14;5129560;56;1136455;-81
2024/04/16 00:29:19;;;;;;;4.60;3.40;;;;;;;9.47;100.00;98695.16;5029484;56;1141880;-82
2024/04/16 00:34:24;;;;;;;3.55;3.22;;;;;;;9.56;100.00;98691.26;5025854;57;1136504;-81
2024/04/16 00:39:30;;;;;;;4.97;3.85;;;;;;;9.56;100.00;98696.54;5037582;57;1136330;-81
2024/04/16 00:44:36;;;;;;;4.07;3.07;;;;;;;9.51;100.00;98696.51;5019678;56;1136288;-81
2024/04/16 00:49:41;;;;;;;2.50;2.40;;;;;;;9.37;100.00;98726.59;5078926;56;1136745;-81
2024/04/16 00:54:47;;;;;;;2.80;2.60;;;;;;;9.27;100.00;98708.25;5094473;56;1136352;-81
2024/04/16 00:59:54;;;;;;;7.10;2.30;;;;;;;9.14;100.00;98703.88;4996251;57;1136286;-81
2024/04/16 01:04:59;;;;;;;1.63;1.60;;;;;;;9.10;100.00;98694.12;4996689;57;1136829;-81
2024/04/16 01:10:06;;;;;;;4.15;1.98;;;;;;;8.98;100.00;98694.52;5018458;57;1136510;-82
2024/04/16 01:15:12;;;;;;;1.73;1.60;;;;;;;8.76;100.00;98677.37;5015899;57;1136625;-81
2024/04/16 01:20:18;;;;;;;3.70;1.60;;;;;;;8.62;100.00;98659.47;4996710;57;1136236;-80
2024/04/16 01:25:23;;;;;;;3.03;1.60;;;;;;;8.56;100.00;98652.98;4996066;57;1136420;-81
2024/04/16 01:30:29;;;;;;;3.52;1.20;;;;;;;8.52;100.00;98647.70;5015877;58;1136471;-81
2024/04/16 01:35:35;;;;;;;1.60;1.50;;;;;;;8.45;100.00;98658.49;4996611;57;1136549;-81
2024/04/16 01:40:40;;;;;;;1.57;1.07;;;;;;;8.37;100.00;98663.70;5000917;57;1137008;-81
2024/04/16 01:45:46;;;;;;;0.50;0.30;;;;;;;8.25;100.00;98668.30;5107853;55;1136566;-81
2024/04/16 01:50:51;;;;;;;2.87;0.43;;;;;;;7.97;100.00;98671.95;5128917;55;1136425;-81
2024/04/16 01:56:01;;;;;;;2.00;0.20;;;;;;;7.22;100.00;98712.42;5129788;56;1136601;-80
2024/04/16 02:01:06;;;;;;;0.00;0.00;;;;;;;6.52;100.00;98735.44;5130043;56;1134479;-81
2024/04/16 02:06:13;;;;;;;0.20;0.10;;;;;;;6.16;100.00;98735.58;5072342;56;1134342;-81
2024/04/16 02:11:18;;;;;;;0.10;0.10;;;;;;;5.81;100.00;98753.03;5045108;56;1134665;-80
2024/04/16 02:16:24;;;;;;;1.77;0.20;;;;;;;5.58;100.00;98763.37;5045487;56;1134379;-81
2024/04/16 02:21:32;;;;;;;0.47;0.40;;;;;;;5.43;100.00;98772.53;5065248;56;1136105;-82
2024/04/16 02:26:37;;;;;;;0.70;0.37;;;;;;;5.34;100.00;98762.35;5045819;57;1135089;-82
2024/04/16 02:31:43;;;;;;;3.33;0.53;;;;;;;5.32;100.00;98762.12;5043588;57;1134564;-81
2024/04/16 02:36:48;;;;;;;0.80;0.80;;;;;;;5.28;100.00;98765.00;5063637;57;1134507;-81
2024/04/16 02:41:54;;;;;;;3.97;1.53;;;;;;;5.29;100.00;98768.45;5044505;57;1134621;-81
2024/04/16 02:46:59;;;;;;;0.80;0.73;;;;;;;5.33;100.00;98772.48;5090226;55;1134492;-83
2024/04/16 02:52:05;;;;;;;0.43;0.43;;;;;;;5.36;100.00;98769.58;5044923;57;1134519;-82
2024/04/16 02:57:11;;;;;;;0.90;0.90;;;;;;;5.40;100.00;98768.38;5025752;56;1134517;-81
2024/04/16 03:02:17;;;;;;;0.95;0.95;;;;;;;5.42;100.00;98763.00;5093823;56;1134495;-81
2024/04/16 03:07:22;;;;;;;0.97;0.97;;;;;;;5.43;100.00;98758.11;5098239;56;1143883;-82
2024/04/16 03:12:28;;;;;;;1.20;0.80;;;;;;;5.46;100.00;98759.17;5071364;56;1134714;-82
2024/04/16 03:17:33;;;;;;;0.80;0.80;;;;;;;5.45;100.00;98760.13;5025752;56;1134396;-82
2024/04/16 03:22:39;;;;;;;0.80;0.80;;;;;;;5.45;100.00;98760.13;5122279;56;1134718;-82
2024/04/16 03:27:45;;;;;;;3.03;0.90;;;;;;;5.42;100.00;98756.45;5106806;56;1134470;-82
2024/04/16 03:32:50;;;;;;;2.10;1.30;;;;;;;5.38;100.00;98765.52;5108315;56;1134456;-82
2024/04/16 03:37:56;;;;;;;2.00;1.00;;;;;;;5.38;100.00;98770.77;5119366;56;1134702;-82
2024/04/16 03:43:01;;;;;;;2.73;1.10;;;;;;;5.41;100.00;98772.66;5026518;57;1134486;-82
2024/04/16 03:48:07;;;;;;;1.30;1.20;;;;;;;5.37;100.00;98777.80;5004539;56;1134478;-82
2024/04/16 03:53:12;;;;;;;2.00;0.90;;;;;;;5.39;100.00;98783.75;4997026;57;1134583;-82
2024/04/16 03:58:18;;;;;;;3.50;1.37;;;;;;;5.40;100.00;98785.41;5093786;56;1134547;-81
2024/04/16 04:03:26;;;;;;;2.40;1.20;;;;;;;5.43;100.00;98779.08;5051345;56;1143517;-82
2024/04/16 04:08:32;;;;;;;1.17;1.00;;;;;;;5.47;100.00;98785.73;4997327;57;1134531;-80
2024/04/16 04:13:37;;;;;;;2.73;1.03;;;;;;;5.47;100.00;98791.81;5064222;56;1134616;-79
2024/04/16 04:18:43;;;;;;;2.13;0.90;;;;;;;5.49;100.00;98799.08;5065825;56;1134749;-77
2024/04/16 04:23:48;;;;;;;2.45;1.22;;;;;;;5.50;100.00;98815.64;5028382;56;1134768;-78
2024/04/16 04:28:55;;;;;;;2.20;1.30;;;;;;;5.50;100.00;98804.64;5098215;56;1134417;-78
2024/04/16 04:34:01;;;;;;;1.47;1.33;;;;;;;5.52;100.00;98802.73;5052674;56;1134513;-78
2024/04/16 04:39:06;;;;;;;4.83;1.37;;;;;;;5.52;100.00;98807.97;5074594;57;1134335;-79
2024/04/16 04:44:12;;;;;;;1.22;1.10;;;;;;;5.54;100.00;98811.78;5024363;56;1134809;-79
2024/04/16 04:49:17;;;;;;;8.80;1.43;;;;;;;5.56;100.00;98816.42;5037121;56;1134609;-78
2024/04/16 04:54:23;;;;;;;4.20;1.47;;;;;;;5.57;100.00;98817.61;5068369;56;1134619;-79
2024/04/16 04:59:29;;;;;;;7.42;1.42;;;;;;;5.59;100.00;98826.17;5065250;55;1134583;-78
2024/04/16 05:04:34;;;;;;;4.58;1.80;;;;;;;5.56;100.00;98841.33;5113049;55;1134829;-78
2024/04/16 05:09:40;;;;;;;7.83;1.82;;;;;;;5.54;100.00;98838.00;5049212;55;1134345;-79
2024/04/16 05:14:45;;;;;;;3.75;1.60;;;;;;;5.52;100.00;98838.61;5046761;55;1134248;-77
2024/04/16 05:19:51;;;;;;;4.47;2.03;;;;;;;5.57;100.00;98847.77;5070226;55;1134332;-80
2024/04/16 05:24:56;;;;;;;3.77;2.57;;;;;;;5.59;100.00;98851.56;5109758;55;1134899;-80
2024/04/16 05:30:02;;;;;;;5.30;2.50;;;;;;;5.63;100.00;98857.75;5059050;55;1134659;-83
2024/04/16 05:35:08;;;;;;;3.47;2.20;;;;;;;5.68;100.00;98854.72;5059426;56;1135352;-86
2024/04/16 05:40:14;;;;;;;3.30;2.17;;;;;;;5.69;100.00;98861.62;5137163;55;1134174;-82
2024/04/16 05:45:20;;;;;;;4.72;2.12;;;;;;;5.78;100.00;98863.98;5103938;55;1134273;-80
2024/04/16 05:50:25;;;;;;;4.87;2.00;;;;;;;5.84;100.00;98866.90;5053487;56;1134424;-87
2024/04/16 05:55:31;;;;;;;7.67;2.40;;;;;;;5.90;100.00;98875.61;5129629;55;1134471;-82
2024/04/16 06:00:39;;;;;;;3.58;1.62;;;;;;;5.93;100.00;98878.45;5171672;55;1134515;-81
2024/04/16 06:05:45;;;;;;;4.97;2.43;;;;;;;5.94;100.00;98890.62;5155972;55;1134494;-81
2024/04/16 06:10:51;;;;;;;5.50;2.80;;;;;;;5.98;100.00;98886.75;5096081;56;1136451;-82
2024/04/16 06:15:57;;;;;;;10.57;2.87;;;;;;;6.01;100.00;98889.13;5056562;56;1136606;-81
2024/04/16 06:21:02;;;;;;;8.15;3.00;;;;;;;6.04;100.00;98895.91;5052845;55;1138698;-81
2024/04/16 06:26:09;;;;;;;3.00;2.00;;;;;;;6.03;100.00;98898.18;5029688;55;1136541;-82
2024/04/16 06:31:15;;;;;;;5.57;2.40;;;;;;;6.00;100.00;98899.27;5046001;56;1134334;-79
2024/04/16 06:36:20;;;;;;;5.23;2.30;;;;;;;6.04;100.00;98906.41;5026986;56;1136591;-79
2024/04/16 06:41:26;;;;;;;5.57;2.03;;;;;;;6.09;100.00;98906.38;5054924;56;1136491;-82
2024/04/16 06:46:31;;;;;;;7.42;2.33;;;;;;;6.09;100.00;98909.00;5117655;55;1134405;-84
2024/04/16 06:51:37;;;;;;;2.70;2.33;;;;;;;6.20;100.00;98913.33;5088712;56;1136460;-79
2024/04/16 06:56:42;;;;;;;5.33;1.70;;;;;;;6.24;100.00;98914.74;5025756;56;1134268;-81
2024/04/16 07:01:48;;;;;;;3.17;2.10;;;;;;;6.28;100.00;98907.77;5064878;55;1136357;-78
2024/04/16 07:06:54;;;;;;;4.20;1.90;;;;;;;6.28;100.00;98907.77;5044685;56;1136624;-84
2024/04/16 07:11:59;;;;;;;2.30;1.40;;;;;;;6.33;100.00;98909.52;5109351;56;1136535;-83
2024/04/16 07:17:05;;;;;;;2.93;2.47;;;;;;;6.38;100.00;98917.50;5128659;56;1136934;-83
2024/04/16 07:22:10;;;;;;;2.50;2.05;;;;;;;6.37;100.00;98914.03;5080871;55;1136461;-81
2024/04/16 07:27:16;;;;;;;4.72;2.05;;;;;;;6.37;100.00;98909.27;5174328;55;1136881;-78
2024/04/16 07:32:22;;;;;;;7.70;1.90;;;;;;;6.47;100.00;98916.69;5052238;55;1136392;-81
2024/04/16 07:37:28;;;;;;;4.30;2.47;;;;;;;6.58;100.00;98907.39;5196379;55;1134506;-81
2024/04/16 07:42:33;;;;;;;3.27;2.00;;;;;;;6.68;100.00;98916.99;5195670;55;1136740;-78
2024/04/16 07:47:39;;;;;;;10.28;2.00;;;;;;;6.72;100.00;98923.30;5138636;55;1136705;-82
2024/04/16 07:52:44;;;;;;;3.60;1.50;;;;;;;6.72;100.00;98921.50;5105400;55;1138515;-81
2024/04/16 07:57:50;;;;;;;3.67;2.10;;;;;;;6.68;100.00;98924.88;5024864;56;1136350;-82
2024/04/16 08:02:55;;;;;;;4.43;2.07;;;;;;;6.68;100.00;98938.01;5055928;55;1134374;-80
2024/04/16 08:08:01;;;;;;;3.73;1.60;;;;;;;6.66;100.00;98939.93;5025533;57;1134420;-76
2024/04/16 08:13:07;;;;;;;4.27;1.80;;;;;;;6.68;100.00;98947.20;5023430;57;1136577;-85
2024/04/16 08:18:12;;;;;;;3.05;1.90;;;;;;;6.68;100.00;98945.89;5025470;57;1136455;-81
2024/04/16 08:23:20;;;;;;;11.13;2.07;;;;;;;6.65;100.00;98950.09;5078009;55;1134673;-83
2024/04/16 08:28:25;;;;;;;4.40;1.73;;;;;;;6.63;100.00;98955.95;5107727;56;1136479;-82
2024/04/16 08:33:31;;;;;;;2.97;1.90;;;;;;;6.66;100.00;98977.19;5109861;56;1136429;-81
2024/04/16 08:38:37;;;;;;;1.98;1.50;;;;;;;6.70;100.00;98962.83;5129392;56;1136528;-83
2024/04/16 08:43:43;;;;;;;3.12;1.30;;;;;;;6.74;100.00;98978.66;5104646;56;1134676;-82
2024/04/16 08:48:50;;;;;;;15.97;6.70;;;;;;;6.78;100.00;98968.24;5108131;56;1136400;-80
2024/04/16 08:53:56;;;;;;;17.60;8.13;;;;;;;6.82;100.00;98979.33;5061717;56;1136380;-81
2024/04/16 08:59:02;;;;;;;20.80;10.60;;;;;;;6.84;100.00;98984.80;5120628;55;1136356;-80
2024/04/16 09:04:09;;;;;;;2.33;1.67;;;;;;;6.93;100.00;98994.98;5056472;56;1140712;-83
2024/04/16 09:09:15;;;;;;;4.00;1.53;;;;;;;6.94;100.00;98990.08;5045935;56;1134529;-83
2024/04/16 09:14:20;;;;;;;2.17;1.53;;;;;;;7.03;100.00;98984.02;5128318;55;1134323;-82
2024/04/16 09:19:27;;;;;;;8.47;3.13;;;;;;;7.17;100.00;98987.61;5196139;55;1136213;-82
2024/04/16 09:24:32;;;;;;;6.83;3.00;;;;;;;7.24;100.00;98987.40;5082043;55;1134449;-84
2024/04/16 09:29:38;;;;;;;10.88;3.42;;;;;;;7.18;100.00;99002.90;5109626;56;1136756;-83
2024/04/16 09:34:43;;;;;;;3.02;1.90;;;;;;;6.81;100.00;99027.11;5105924;56;1138850;-82
2024/04/16 09:39:53;;;;;;;3.80;1.20;;;;;;;6.32;100.00;99027.32;5129821;56;1136682;-83
2024/04/16 09:44:59;;;;;;;9.88;5.92;;;;;;;6.23;100.00;99020.70;5149539;56;1136405;-84
2024/04/16 09:50:07;;;;;;;12.60;3.30;;;;;;;6.55;100.00;99008.80;5111906;55;1136371;-83
2024/04/16 09:55:13;;;;;;;8.90;4.37;;;;;;;6.85;100.00;99002.23;5128228;56;1139107;-84
2024/04/16 10:00:20;;;;;;;10.60;3.40;;;;;;;6.93;100.00;99004.19;5088108;56;1136297;-83
2024/04/16 10:05:26;;;;;;;5.00;2.27;;;;;;;7.09;100.00;98997.11;5035281;56;1138471;-83
2024/04/16 10:10:31;;;;;;;4.33;2.33;;;;;;;7.15;100.00;98994.80;4997529;56;1136617;-82
2024/04/16 10:15:37;;;;;;;5.80;2.47;;;;;;;7.26;100.00;98996.47;4997386;57;1136760;-82
2024/04/16 10:21:00;;;;;;;3.17;2.00;;;;;;;7.36;100.00;98979.73;5049905;56;1136881;-82
2024/04/16 10:26:07;;;;;;;8.50;3.60;;;;;;;7.55;100.00;98974.15;5073998;56;1136621;-81
2024/04/16 10:31:15;;;;;;;2.90;1.80;;;;;;;7.73;100.00;98981.23;5043710;56;1136500;-82
2024/04/16 10:36:23;;;;;;;4.45;2.15;;;;;;;7.81;100.00;98980.52;5019363;56;1136804;-82
2024/04/16 10:41:31;;;;;;;15.85;3.77;;;;;;;7.86;100.00;98970.90;5037969;57;1136527;-82
2024/04/16 10:46:36;;;;;;;10.73;2.83;;;;;;;8.34;100.00;98953.25;4971941;57;1138602;-84
2024/04/16 10:51:42;;;;;;;15.87;3.70;;;;;;;8.62;100.00;98959.88;4996065;58;1138555;-82
2024/04/16 10:56:50;;;;;;;7.93;2.47;;;;;;;8.89;100.00;98934.84;5026352;57;1139260;-82
2024/04/16 11:01:56;;;;;;;8.70;2.03;;;;;;;8.89;100.00;98939.28;5052399;56;1136681;-82
2024/04/16 11:07:02;;;;;;;8.87;1.87;;;;;;;9.12;100.00;98940.55;5041611;56;1136701;-79
2024/04/16 11:12:08;;;;;;;6.28;1.32;;;;;;;9.20;100.00;98931.88;5036322;57;1136706;-81
2024/04/16 11:17:14;;;;;;;8.90;2.10;;;;;;;9.42;100.00;98977.64;5040977;55;1136687;-84
2024/04/16 11:22:19;;;;;;;3.20;1.27;;;;;;;9.42;100.00;98977.64;5025298;56;1136713;-80
2024/04/16 11:27:25;;;;;;;4.97;1.65;;;;;;;9.24;100.00;98965.74;5025432;57;1136981;-80
2024/04/16 11:32:33;;;;;;;4.27;1.30;;;;;;;9.04;100.00;98991.39;5045655;57;1136521;-82
2024/04/16 11:37:45;;;;;;;3.60;1.00;;;;;;;8.89;100.00;98988.06;5066842;56;1136558;-80
2024/04/16 11:42:51;;;;;;;3.27;2.53;;;;;;;8.59;100.00;99007.59;5053087;56;1136502;-83
2024/04/16 11:47:57;;;;;;;0.73;0.60;;;;;;;7.75;100.00;99033.73;5112392;56;1136416;-81
2024/04/16 11:53:02;;;;;;;1.43;0.67;;;;;;;6.91;100.00;99027.97;5097488;56;1136614;-80
2024/04/16 11:58:09;;;;;;;1.37;0.80;;;;;;;6.36;100.00;99029.22;5068277;55;1134660;-81
2024/04/16 12:03:15;;;;;;;2.30;0.73;;;;;;;6.19;100.00;99014.04;5047538;56;1144166;-82
2024/04/16 12:08:20;;;;;;;4.77;0.80;;;;;;;6.29;100.00;99020.17;5103688;56;1134592;-81
2024/04/16 12:13:26;;;;;;;5.58;2.08;;;;;;;6.64;100.00;99010.16;5045628;55;1143770;-84
2024/04/16 12:18:37;;;;;;;1.87;1.02;;;;;;;6.77;100.00;99002.05;5036952;56;1146456;-86
2024/04/16 12:23:47;;;;;;;2.12;1.10;;;;;;;6.94;100.00;99003.22;5057998;55;1136762;-81
2024/04/16 12:28:57;;;;;;;1.50;0.80;;;;;;;7.11;100.00;98993.88;5056323;55;1136717;-86
2024/04/16 12:34:01;;;;;;;1.57;0.90;;;;;;;7.52;100.00;98988.89;5062524;57;1136725;-88
2024/04/16 12:39:07;;;;;;;2.00;1.77;;;;;;;7.93;100.00;98983.38;5042643;56;1136807;-87
2024/04/16 12:44:12;;;;;;;1.13;0.80;;;;;;;8.40;100.00;98980.84;5061977;55;1136925;-81
2024/04/16 12:49:19;;;;;;;2.37;1.07;;;;;;;8.53;100.00;98982.66;5129214;55;1136561;-89
2024/04/16 12:54:24;;;;;;;1.70;1.00;;;;;;;8.20;100.00;99005.03;5100345;55;1136872;-85
2024/04/16 12:59:33;;;;;;;1.07;0.83;;;;;;;7.85;100.00;99008.23;5052951;56;1136373;-83
2024/04/16 13:04:39;;;;;;;3.60;1.23;;;;;;;7.45;100.00;99007.52;5082389;56;1136738;-84
2024/04/16 13:09:45;;;;;;;1.37;1.12;;;;;;;7.17;100.00;99002.06;5089391;56;1136734;-82
2024/04/16 13:14:51;;;;;;;1.33;1.10;;;;;;;7.10;100.00;99015.39;5106106;56;1136439;-87
2024/04/16 13:19:56;;;;;;;6.57;1.80;;;;;;;7.00;100.00;99026.36;5109066;56;1136739;-81
2024/04/16 13:25:02;;;;;;;3.40;1.93;;;;;;;7.16;100.00;99008.77;5122229;56;1136385;-82
2024/04/16 13:30:08;;;;;;;9.65;2.60;;;;;;;7.40;100.00;98998.23;5077928;56;1136372;-82
2024/04/16 13:35:14;;;;;;;3.00;1.63;;;;;;;7.49;100.00;99003.63;5093162;56;1136526;-85
2024/04/16 13:40:20;;;;;;;5.47;2.40;;;;;;;7.58;100.00;98994.45;5050426;56;1136653;-83
2024/04/16 13:45:25;;;;;;;3.50;1.42;;;;;;;7.72;100.00;98997.15;5050220;55;1136478;-84
2024/04/16 13:50:31;;;;;;;3.83;1.47;;;;;;;8.00;100.00;98989.73;5024735;57;1136531;-84
2024/04/16 13:55:37;;;;;;;4.47;2.00;;;;;;;8.34;100.00;98983.55;5044673;57;1136411;-83
2024/04/16 14:00:42;;;;;;;2.87;1.37;;;;;;;8.38;100.00;98988.88;5025106;57;1136548;-82
2024/04/16 14:05:48;;;;;;;3.42;1.60;;;;;;;8.65;100.00;98987.27;5029904;56;1136397;-83
2024/04/16 14:10:54;;;;;;;3.27;1.10;;;;;;;8.81;100.00;98976.45;5064678;56;1136558;-83
2024/04/16 14:15:59;;;;;;;1.03;0.90;;;;;;;8.81;100.00;98975.62;5044877;56;1136696;-80
2024/04/16 14:21:05;;;;;;;2.67;1.10;;;;;;;8.71;100.00;98973.49;5044413;56;1136518;-84
2024/04/16 14:26:12;;;;;;;3.30;1.00;;;;;;;8.69;100.00;98982.06;5044575;56;1136921;-83
2024/04/16 14:31:18;;;;;;;1.40;0.80;;;;;;;8.67;100.00;98984.00;5060998;56;1136801;-82
2024/04/16 14:36:24;;;;;;;3.00;1.00;;;;;;;8.67;100.00;98977.41;5068309;56;1136655;-84
2024/04/16 14:41:30;;;;;;;4.53;1.67;;;;;;;8.68;100.00;98975.13;5055086;56;1136242;-82
2024/04/16 14:46:36;;;;;;;6.90;1.83;;;;;;;8.76;100.00;98968.62;5101719;56;1136291;-84
2024/04/16 14:51:41;;;;;;;4.92;1.65;;;;;;;8.86;100.00;98969.41;5044737;56;1136393;-84
2024/04/16 14:56:47;;;;;;;0.68;0.68;;;;;;;8.92;100.00;98967.52;5044686;56;1136365;-84
2024/04/16 15:01:54;;;;;;;1.73;0.53;;;;;;;8.96;100.00;99006.29;5064081;56;1136731;-83
2024/04/16 15:07:00;;;;;;;1.62;1.00;;;;;;;8.11;100.00;99047.98;5044749;57;1137073;-85
2024/04/16 15:12:06;;;;;;;5.43;1.63;;;;;;;6.92;100.00;99063.80;5045134;57;1134617;-84
2024/04/16 15:17:13;;;;;;;6.87;3.27;;;;;;;6.25;100.00;99017.00;5103635;56;1134802;-84
2024/04/16 15:22:19;;;;;;;3.93;2.57;;;;;;;6.10;100.00;99020.06;5149802;56;1136386;-83
2024/04/16 15:27:25;;;;;;;8.77;2.60;;;;;;;6.13;100.00;99023.72;5077736;56;1136738;-84
2024/04/16 15:32:30;;;;;;;9.07;4.07;;;;;;;6.29;100.00;99024.95;5044954;56;1136982;-85
2024/04/16 15:37:36;;;;;;;4.10;2.60;;;;;;;6.48;100.00;99028.66;5064705;56;1136729;-84
2024/04/16 15:42:42;;;;;;;3.85;2.40;;;;;;;6.64;100.00;99023.30;5045694;56;1136791;-83
2024/04/16 15:47:47;;;;;;;4.60;2.15;;;;;;;6.73;100.00;99019.52;5122988;55;1136722;-82
2024/04/16 15:52:54;;;;;;;5.57;2.13;;;;;;;6.77;100.00;99027.02;5149835;56;1136722;-83
2024/04/16 15:57:59;;;;;;;2.93;1.77;;;;;;;6.81;100.00;99024.48;5071042;55;1136380;-82
2024/04/16 16:03:06;;;;;;;1.33;1.23;;;;;;;6.88;100.00;99041.84;5044699;56;1136526;-83
2024/04/16 16:08:12;;;;;;;4.07;1.20;;;;;;;6.92;100.00;99024.86;5093194;55;1136746;-82
2024/04/16 16:13:17;;;;;;;1.27;1.17;;;;;;;6.96;100.00;99019.22;5068525;56;1136769;-84
2024/04/16 16:18:23;;;;;;;5.30;1.83;;;;;;;6.95;100.00;99017.55;5111895;56;1136868;-81
2024/04/16 16:23:28;;;;;;;1.90;1.00;;;;;;;6.96;100.00;99002.61;5117224;56;1136703;-83
2024/04/16 16:28:35;;;;;;;2.80;1.30;;;;;;;6.96;100.00;99006.55;5128522;56;1136505;-83
2024/04/16 16:33:41;;;;;;;4.12;1.40;;;;;;;6.94;100.00;99005.38;5044257;56;1136902;-81
2024/04/16 16:38:47;;;;;;;5.45;1.10;;;;;;;6.93;100.00;99002.87;5078962;56;1136708;-80
2024/04/16 16:43:52;;;;;;;3.97;1.20;;;;;;;6.93;100.00;99010.27;5149122;56;1136855;-84
2024/04/16 16:48:58;;;;;;;3.80;1.07;;;;;;;6.93;100.00;99011.59;5125238;56;1136824;-81
2024/04/16 16:54:03;;;;;;;7.73;1.83;;;;;;;6.95;100.00;99015.41;5103278;56;1136968;-83
2024/04/16 16:59:09;;;;;;;5.58;1.47;;;;;;;6.95;100.00;99016.72;5095431;56;1136510;-82
2024/04/16 17:04:15;;;;;;;1.60;1.50;;;;;;;6.90;100.00;99011.84;5057253;56;1136786;-81
2024/04/16 17:09:20;;;;;;;2.57;1.63;;;;;;;6.88;100.00;99015.56;5040651;57;1136774;-81
2024/04/16 17:14:26;;;;;;;7.03;2.80;;;;;;;6.91;100.00;99012.68;5048884;56;1136702;-84
2024/04/16 17:19:31;;;;;;;4.77;1.57;;;;;;;6.91;100.00;99012.20;5107119;55;1136394;-83
2024/04/16 17:24:38;;;;;;;5.63;2.93;;;;;;;6.93;100.00;99005.50;5109879;56;1136819;-82
2024/04/16 17:29:43;;;;;;;6.78;2.58;;;;;;;6.90;100.00;99002.65;5085123;56;1136757;-83
2024/04/16 17:34:49;;;;;;;3.37;2.30;;;;;;;6.89;100.00;99002.78;5065205;55;1136914;-81
2024/04/16 17:39:55;;;;;;;2.33;1.70;;;;;;;6.85;100.00;99007.98;5087064;55;1136678;-84
2024/04/16 17:45:00;;;;;;;5.67;2.10;;;;;;;6.81;100.00;99010.51;5080339;55;1137078;-80
2024/04/16 17:50:07;;;;;;;9.53;1.93;;;;;;;6.78;100.00;99021.27;5144865;55;1136400;-82
2024/04/16 17:55:12;;;;;;;6.20;2.30;;;;;;;6.77;100.00;99017.81;5124929;56;1136394;-83
2024/04/16 18:00:19;;;;;;;6.30;2.13;;;;;;;6.80;100.00;99016.72;5124593;56;1136742;-85
2024/04/16 18:05:25;;;;;;;3.60;2.10;;;;;;;6.82;100.00;99031.40;5131204;56;1136970;-83
2024/04/16 18:10:31;;;;;;;7.67;2.30;;;;;;;6.82;100.00;99026.14;5085744;55;1137019;-83
2024/04/16 18:15:40;;;;;;;4.12;2.25;;;;;;;6.82;100.00;99037.14;5093177;56;1136486;-82
2024/04/16 18:20:46;;;;;;;4.23;2.67;;;;;;;6.82;100.00;99039.77;5030284;57;1136949;-84
2024/04/16 18:25:51;;;;;;;4.90;2.20;;;;;;;6.81;100.00;99049.44;5025098;57;1136750;-82
2024/04/16 18:30:57;;;;;;;5.00;2.43;;;;;;;6.82;100.00;99058.99;5025217;57;1136272;-83
2024/04/16 18:36:03;;;;;;;6.40;3.97;;;;;;;6.84;100.00;99058.86;5044818;57;1136714;-82
2024/04/16 18:41:10;;;;;;;6.10;2.70;;;;;;;6.85;100.00;99060.53;5075042;56;1136719;-84
2024/04/16 18:46:15;;;;;;;3.45;2.37;;;;;;;6.84;100.00;99061.49;5059471;56;1136388;-83
2024/04/16 18:51:23;;;;;;;2.43;2.23;;;;;;;6.82;100.00;99071.30;5049910;56;1136825;-80
2024/04/16 18:56:31;;;;;;;4.83;3.03;;;;;;;6.80;100.00;99071.42;5025042;56;1136519;-83
2024/04/16 19:01:36;;;;;;;6.33;1.83;;;;;;;6.76;100.00;99069.18;5025253;56;1136274;-81
2024/04/16 19:06:42;;;;;;;4.37;1.70;;;;;;;6.70;100.00;99071.38;5077126;56;1137006;-81
2024/04/16 19:11:48;;;;;;;3.27;1.70;;;;;;;6.66;100.00;99069.97;5059705;56;1136749;-80
2024/04/16 19:16:53;;;;;;;5.33;2.30;;;;;;;6.65;100.00;99077.50;5078736;56;1136419;-81
2024/04/16 19:22:00;;;;;;;2.90;1.57;;;;;;;6.63;100.00;99074.64;5106303;56;1136292;-79
2024/04/16 19:27:07;;;;;;;1.13;1.10;;;;;;;6.57;100.00;99069.41;5108848;56;1136877;-82
2024/04/16 19:32:12;;;;;;;1.53;1.43;;;;;;;6.51;100.00;99066.48;5107706;56;1136545;-83
2024/04/16 19:37:18;;;;;;;2.62;1.32;;;;;;;6.48;100.00;99061.48;5107421;56;1136738;-81
2024/04/16 19:42:24;;;;;;;4.43;2.87;;;;;;;6.46;100.00;99067.34;5098578;55;1136687;-81
2024/04/16 19:47:31;;;;;;;2.30;1.47;;;;;;;6.43;100.00;99073.68;5103229;56;1136500;-81
2024/04/16 19:52:37;;;;;;;2.07;1.80;;;;;;;6.42;100.00;99070.70;5030362;56;1136453;-78
2024/04/16 19:57:42;;;;;;;1.40;1.30;;;;;;;6.39;100.00;99068.83;5053083;56;1136779;-79
2024/04/16 20:02:48;;;;;;;1.70;1.60;;;;;;;6.33;100.00;99061.81;5025450;57;1136557;-79
2024/04/16 20:07:53;;;;;;;1.65;1.32;;;;;;;6.26;100.00;99062.46;5025885;56;1136485;-78
2024/04/16 20:12:59;;;;;;;1.57;1.47;;;;;;;6.26;100.00;99062.46;5045763;56;1136582;-78
2024/04/16 20:18:11;;;;;;;3.10;1.87;;;;;;;6.19;100.00;99064.75;5033481;56;1136391;-79
2024/04/16 20:23:15;;;;;;;2.23;1.53;;;;;;;6.13;100.00;99067.03;5037767;56;1136374;-78
2024/04/16 20:28:20;;;;;;;1.80;1.70;;;;;;;6.06;100.00;99078.53;5059718;56;1136420;-78
2024/04/16 20:33:27;;;;;;;2.03;1.83;;;;;;;6.04;100.00;99073.88;5095217;56;1136423;-78
2024/04/16 20:38:33;;;;;;;6.57;2.20;;;;;;;6.04;100.00;99075.67;5082019;56;1136377;-78
2024/04/16 20:43:39;;;;;;;2.43;2.20;;;;;;;5.99;100.00;99074.73;5085241;56;1136354;-78
2024/04/16 20:48:44;;;;;;;2.17;2.07;;;;;;;5.94;100.00;99077.75;5123303;56;1136893;-78
2024/04/16 20:53:49;;;;;;;2.90;2.67;;;;;;;5.90;100.00;99079.42;5042808;56;1136411;-77
2024/04/16 20:58:55;;;;;;;1.85;1.60;;;;;;;5.83;100.00;99078.22;5093496;56;1134696;-78
2024/04/16 21:04:00;;;;;;;1.30;1.30;;;;;;;5.75;100.00;99085.88;5098169;56;1134292;-78
2024/04/16 21:09:06;;;;;;;2.03;1.90;;;;;;;5.71;100.00;99089.22;5051519;56;1136617;-78
2024/04/16 21:14:12;;;;;;;1.73;1.63;;;;;;;5.63;100.00;99091.64;5061580;56;1134754;-78
2024/04/16 21:19:17;;;;;;;4.87;2.62;;;;;;;5.52;100.00;99091.64;5053170;56;1136868;-78
2024/04/16 21:24:23;;;;;;;1.80;1.70;;;;;;;5.45;100.00;99102.28;5065356;56;1134617;-78
2024/04/16 21:29:28;;;;;;;2.23;2.00;;;;;;;5.38;100.00;99103.70;5045514;56;1134415;-78
2024/04/16 21:34:34;;;;;;;3.10;2.60;;;;;;;5.33;100.00;99104.09;5046488;56;1136563;-78
2024/04/16 21:39:39;;;;;;;3.20;2.43;;;;;;;5.34;100.00;99100.98;5065907;56;1137049;-78
2024/04/16 21:44:45;;;;;;;2.03;1.93;;;;;;;5.36;100.00;99099.89;5072282;55;1136347;-78
2024/04/16 21:49:50;;;;;;;3.55;2.72;;;;;;;5.38;100.00;99101.08;5129964;55;1136632;-77
2024/04/16 21:54:56;;;;;;;3.12;2.83;;;;;;;5.40;100.00;99107.04;5149811;55;1136438;-78
2024/04/16 22:00:02;;;;;;;3.83;2.80;;;;;;;5.41;100.00;99110.85;5099496;55;1136497;-78
2024/04/16 22:05:09;;;;;;;4.00;3.03;;;;;;;5.41;100.00;99110.85;5104280;56;1136449;-78
2024/04/16 22:10:16;;;;;;;3.30;2.90;;;;;;;5.40;100.00;99108.34;5130136;56;1136900;-78
2024/04/16 22:15:21;;;;;;;4.00;2.50;;;;;;;5.31;100.00;99111.23;5150166;56;1134722;-78
2024/04/16 22:20:27;;;;;;;2.60;2.37;;;;;;;5.29;100.00;99121.83;5129387;56;1136656;-77
2024/04/16 22:25:32;;;;;;;2.20;1.90;;;;;;;5.33;100.00;99125.05;5129595;56;1136602;-78
2024/04/16 22:30:38;;;;;;;2.10;1.90;;;;;;;5.35;100.00;99126.25;5109075;56;1136984;-78
2024/04/16 22:35:51;;;;;;;2.80;1.90;;;;;;;5.26;100.00;99129.09;5026829;56;1134285;-79
2024/04/16 22:40:58;;;;;;;3.15;2.17;;;;;;;5.26;100.00;99136.95;5046434;56;1136493;-78
2024/04/16 22:46:04;;;;;;;1.70;1.60;;;;;;;5.20;100.00;99141.35;5113527;55;1134433;-79
2024/04/16 22:51:09;;;;;;;2.07;1.97;;;;;;;5.15;100.00;99143.05;5129361;55;1134640;-78
2024/04/16 22:56:15;;;;;;;1.07;1.07;;;;;;;5.12;100.00;99150.30;5100634;55;1136430;-78
2024/04/16 23:01:20;;;;;;;1.47;1.37;;;;;;;5.05;100.00;99147.30;5065048;57;1134677;-78
2024/04/16 23:06:26;;;;;;;1.77;1.60;;;;;;;4.94;100.00;99146.82;5085259;56;1134463;-78
2024/04/16 23:11:31;;;;;;;1.42;1.35;;;;;;;5.01;100.00;99164.23;5044890;56;1136356;-78
2024/04/16 23:16:37;;;;;;;1.63;1.53;;;;;;;5.06;100.00;99168.63;5065206;56;1136428;-79
2024/04/16 23:21:45;;;;;;;3.27;1.50;;;;;;;5.10;100.00;99171.85;5049671;56;1136949;-79
2024/04/16 23:26:50;;;;;;;2.50;1.30;;;;;;;5.06;100.00;99163.86;5016750;56;1136455;-79